createdAt,value
2023-05-04T00:00:00.221Z,532.0769
2023-05-04T00:01:03.132Z,534.3077
2023-05-04T00:02:06.089Z,536.7692
2023-05-04T00:03:09.159Z,540.3077
2023-05-04T00:04:12.215Z,546.1539
2023-05-04T00:05:14.935Z,553.3846
2023-05-04T00:06:17.869Z,556.0000
2023-05-04T00:07:20.855Z,557.9231
2023-05-04T00:08:23.780Z,560.2308
2023-05-04T00:09:26.741Z,562.0000
2023-05-04T00:10:29.675Z,562.2308
2023-05-04T00:11:32.623Z,551.1539
2023-05-04T00:12:35.596Z,548.9231
2023-05-04T00:13:38.547Z,550.6154
2023-05-04T00:14:41.468Z,549.3077
2023-05-04T00:15:44.470Z,552.6923
2023-05-04T00:16:47.369Z,551.0769
2023-05-04T00:17:50.341Z,548.0769
2023-05-04T00:18:53.310Z,546.5385
2023-05-04T00:19:56.265Z,545.6923
2023-05-04T00:20:59.160Z,544.6154
2023-05-04T00:22:02.122Z,542.2308
2023-05-04T00:23:05.096Z,541.0769
2023-05-04T00:24:08.037Z,539.6923
2023-05-04T00:25:10.974Z,542.3077
2023-05-04T00:26:13.951Z,548.1539
2023-05-04T00:27:16.887Z,553.2308
2023-05-04T00:28:19.798Z,554.3846
2023-05-04T00:29:22.757Z,552.6154
2023-05-04T00:30:25.709Z,552.3846
2023-05-04T00:31:28.792Z,551.3077
2023-05-04T00:32:31.652Z,549.6154
2023-05-04T00:33:34.546Z,549.7692
2023-05-04T00:34:37.511Z,548.6154
2023-05-04T00:35:40.435Z,548.4615
2023-05-04T00:36:43.417Z,560.7692
2023-05-04T00:37:46.349Z,576.0000
2023-05-04T00:38:49.340Z,565.3077
2023-05-04T00:39:52.295Z,557.4615
2023-05-04T00:40:55.206Z,563.5385
2023-05-04T00:41:58.147Z,574.5385
2023-05-04T00:43:01.101Z,579.9231
2023-05-04T00:44:04.067Z,577.7692
2023-05-04T00:45:07.010Z,565.1539
2023-05-04T00:46:09.941Z,548.0769
2023-05-04T00:47:12.948Z,538.7692
2023-05-04T00:48:15.961Z,534.5385
2023-05-04T00:49:18.867Z,535.7692
2023-05-04T00:50:21.779Z,539.4615
2023-05-04T00:51:24.726Z,577.3077
2023-05-04T00:52:27.691Z,597.8461
2023-05-04T00:53:30.633Z,587.5385
2023-05-04T00:54:33.568Z,575.8461
2023-05-04T00:55:36.524Z,557.9231
2023-05-04T00:56:39.482Z,548.0769
2023-05-04T00:57:42.433Z,545.8461
2023-05-04T00:58:45.390Z,546.5385
2023-05-04T00:59:48.319Z,549.6154
2023-05-04T01:00:51.287Z,551.6154
2023-05-04T01:01:54.221Z,552.1539
2023-05-04T01:02:57.304Z,550.6154
2023-05-04T01:04:00.204Z,546.6154
2023-05-04T01:05:03.044Z,543.9231
2023-05-04T01:06:05.991Z,542.8461
2023-05-04T01:07:08.969Z,541.6154
2023-05-04T01:08:11.942Z,541.8461
2023-05-04T01:09:14.834Z,543.0000
2023-05-04T01:10:17.811Z,549.2308
2023-05-04T01:11:20.741Z,561.6154
2023-05-04T01:12:23.706Z,567.0000
2023-05-04T01:13:26.660Z,568.2308
2023-05-04T01:14:29.597Z,564.5385
2023-05-04T01:15:32.543Z,555.3077
2023-05-04T01:16:35.544Z,548.6154
2023-05-04T01:17:38.609Z,544.5385
2023-05-04T01:18:41.414Z,545.7692
2023-05-04T01:19:44.357Z,543.3846
2023-05-04T01:20:47.306Z,544.0000
2023-05-04T01:21:50.257Z,546.0000
2023-05-04T01:22:53.226Z,545.8461
2023-05-04T01:23:56.187Z,545.6154
2023-05-04T01:24:59.171Z,544.3846
2023-05-04T01:26:02.091Z,541.4615
2023-05-04T01:27:05.106Z,539.0000
2023-05-04T01:28:07.995Z,536.5385
2023-05-04T01:29:10.920Z,536.6923
2023-05-04T01:30:13.881Z,539.5385
2023-05-04T01:31:16.855Z,534.6154
2023-05-04T01:32:19.756Z,527.6154
2023-05-04T01:33:22.742Z,522.1539
2023-05-04T01:34:25.679Z,521.3077
2023-05-04T01:35:28.655Z,522.0000
2023-05-04T01:36:31.565Z,522.7692
2023-05-04T01:37:34.531Z,524.0000
2023-05-04T01:38:37.472Z,525.1539
2023-05-04T01:39:40.453Z,526.0769
2023-05-04T01:40:43.374Z,534.5385
2023-05-04T01:41:46.307Z,542.6923
2023-05-04T01:42:49.269Z,544.6923
2023-05-04T01:43:52.220Z,548.0000
2023-05-04T01:44:55.152Z,551.7692
2023-05-04T01:45:58.151Z,550.3077
2023-05-04T01:47:01.069Z,546.0000
2023-05-04T01:48:04.117Z,542.0000
2023-05-04T01:49:07.026Z,538.6154
2023-05-04T01:50:09.898Z,537.0000
2023-05-04T01:51:12.854Z,538.4615
2023-05-04T01:52:15.811Z,542.7692
2023-05-04T01:53:18.750Z,557.2308
2023-05-04T01:54:21.742Z,571.1539
2023-05-04T01:55:24.646Z,585.8461
2023-05-04T01:56:27.616Z,583.3077
2023-05-04T01:57:30.589Z,579.0769
2023-05-04T01:58:33.511Z,565.5385
2023-05-04T01:59:36.480Z,556.0769
2023-05-04T02:00:39.413Z,553.5385
2023-05-04T02:01:42.427Z,550.4615
2023-05-04T02:02:45.429Z,546.7692
2023-05-04T02:03:48.407Z,548.0000
2023-05-04T02:04:51.259Z,586.9231
2023-05-04T02:05:54.164Z,588.8461
2023-05-04T02:06:57.252Z,592.2308
2023-05-04T02:08:00.110Z,588.0769
2023-05-04T02:09:03.017Z,580.8461
2023-05-04T02:10:06.103Z,570.3077
2023-05-04T02:11:08.901Z,561.7692
2023-05-04T02:12:11.876Z,560.5385
2023-05-04T02:13:14.923Z,558.2308
2023-05-04T02:14:17.746Z,560.0769
2023-05-04T02:15:20.697Z,572.3077
2023-05-04T02:16:23.733Z,578.7692
2023-05-04T02:17:26.755Z,577.8461
2023-05-04T02:18:29.544Z,577.4615
2023-05-04T02:19:32.523Z,575.6923
2023-05-04T02:20:35.483Z,575.6923
2023-05-04T02:21:38.417Z,578.8461
2023-05-04T02:22:41.414Z,580.3846
2023-05-04T02:23:44.342Z,575.6923
2023-05-04T02:24:47.334Z,571.3846
2023-05-04T02:25:50.204Z,568.3846
2023-05-04T02:26:53.146Z,565.3077
2023-05-04T02:27:56.113Z,563.5385
2023-05-04T02:28:59.050Z,561.9231
2023-05-04T02:30:02.269Z,569.2308
2023-05-04T02:31:04.972Z,575.3077
2023-05-04T02:32:07.957Z,575.6923
2023-05-04T02:33:10.868Z,575.4615
2023-05-04T02:34:13.801Z,570.1539
2023-05-04T02:35:16.794Z,570.7692
2023-05-04T02:36:19.737Z,577.1539
2023-05-04T02:37:22.664Z,579.2308
2023-05-04T02:38:25.634Z,578.6923
2023-05-04T02:39:28.565Z,576.7692
2023-05-04T02:40:31.636Z,575.0000
2023-05-04T02:41:34.457Z,571.6923
2023-05-04T02:42:37.482Z,568.9231
2023-05-04T02:43:40.393Z,566.1539
2023-05-04T02:44:43.322Z,562.2308
2023-05-04T02:45:46.345Z,567.4615
2023-05-04T02:46:49.246Z,608.5385
2023-05-04T02:47:52.269Z,604.6923
2023-05-04T02:48:55.284Z,605.5385
2023-05-04T02:49:58.081Z,608.5385
2023-05-04T02:51:01.031Z,604.9231
2023-05-04T02:52:03.993Z,600.5385
2023-05-04T02:53:06.986Z,596.9231
2023-05-04T02:54:09.904Z,591.3846
2023-05-04T02:55:12.876Z,583.2308
2023-05-04T02:56:15.798Z,574.0769
2023-05-04T02:57:18.750Z,567.6923
2023-05-04T02:58:21.691Z,566.0000
2023-05-04T02:59:24.633Z,563.6154
2023-05-04T03:00:27.657Z,567.5385
2023-05-04T03:01:32.110Z,572.2308
2023-05-04T03:02:33.568Z,571.1539
2023-05-04T03:03:36.537Z,570.2308
2023-05-04T03:04:39.605Z,572.6923
2023-05-04T03:05:42.418Z,575.6923
2023-05-04T03:06:45.344Z,575.5385
2023-05-04T03:07:48.311Z,574.8461
2023-05-04T03:08:51.277Z,580.2308
2023-05-04T03:09:54.226Z,583.4615
2023-05-04T03:10:57.144Z,590.3846
2023-05-04T03:12:00.162Z,594.0000
2023-05-04T03:13:03.037Z,584.4615
2023-05-04T03:14:05.998Z,577.7692
2023-05-04T03:15:08.936Z,575.0000
2023-05-04T03:16:11.966Z,571.0769
2023-05-04T03:17:14.848Z,565.1539
2023-05-04T03:18:17.796Z,562.3077
2023-05-04T03:19:20.741Z,560.3077
2023-05-04T03:20:23.734Z,558.6923
2023-05-04T03:21:26.640Z,559.9231
2023-05-04T03:22:29.604Z,567.7692
2023-05-04T03:23:32.544Z,584.6923
2023-05-04T03:24:35.508Z,596.0769
2023-05-04T03:25:38.566Z,602.8461
2023-05-04T03:26:41.443Z,595.0000
2023-05-04T03:27:44.378Z,586.1539
2023-05-04T03:28:47.282Z,578.7692
2023-05-04T03:29:50.275Z,579.1539
2023-05-04T03:30:53.205Z,578.6923
2023-05-04T03:31:56.345Z,577.0769
2023-05-04T03:32:59.106Z,577.0000
2023-05-04T03:34:02.042Z,577.0769
2023-05-04T03:35:05.004Z,575.0000
2023-05-04T03:36:07.925Z,573.8461
2023-05-04T03:37:10.883Z,574.3077
2023-05-04T03:38:13.826Z,577.6923
2023-05-04T03:39:16.782Z,578.0769
2023-05-04T03:40:19.749Z,579.8461
2023-05-04T03:41:22.677Z,581.7692
2023-05-04T03:42:25.663Z,584.7692
2023-05-04T03:43:28.575Z,588.3077
2023-05-04T03:44:31.548Z,591.0769
2023-05-04T03:45:34.466Z,591.6923
2023-05-04T03:46:37.558Z,589.0769
2023-05-04T03:47:40.439Z,586.0769
2023-05-04T03:48:43.345Z,585.9231
2023-05-04T03:49:46.285Z,583.7692
2023-05-04T03:50:49.221Z,583.8461
2023-05-04T03:51:52.168Z,582.6154
2023-05-04T03:52:55.124Z,582.8461
2023-05-04T03:53:58.068Z,582.2308
2023-05-04T03:55:01.016Z,580.0000
2023-05-04T03:56:03.966Z,578.8461
2023-05-04T03:57:06.965Z,579.4615
2023-05-04T03:58:09.856Z,582.6923
2023-05-04T03:59:12.834Z,584.3846
2023-05-04T04:00:15.746Z,585.7692
2023-05-04T04:01:18.711Z,585.5385
2023-05-04T04:02:21.693Z,583.3846
2023-05-04T04:03:24.728Z,581.3846
2023-05-04T04:04:27.584Z,582.3846
2023-05-04T04:05:30.556Z,588.0000
2023-05-04T04:06:33.469Z,594.6154
2023-05-04T04:07:36.379Z,594.2308
2023-05-04T04:08:39.317Z,590.5385
2023-05-04T04:09:42.271Z,588.7692
2023-05-04T04:10:45.230Z,587.6923
2023-05-04T04:11:48.173Z,582.0000
2023-05-04T04:12:51.182Z,582.4615
2023-05-04T04:13:54.092Z,582.2308
2023-05-04T04:14:57.122Z,582.2308
2023-05-04T04:16:00.070Z,580.0769
2023-05-04T04:17:02.907Z,581.4615
2023-05-04T04:18:05.943Z,594.0769
2023-05-04T04:19:08.808Z,585.4615
2023-05-04T04:20:11.782Z,582.0000
2023-05-04T04:21:14.746Z,583.0769
2023-05-04T04:22:17.690Z,584.9231
2023-05-04T04:23:20.633Z,585.6923
2023-05-04T04:24:23.623Z,589.5385
2023-05-04T04:25:26.508Z,594.7692
2023-05-04T04:26:29.449Z,594.6154
2023-05-04T04:27:32.401Z,592.0000
2023-05-04T04:28:35.352Z,590.3846
2023-05-04T04:29:38.305Z,588.3846
2023-05-04T04:30:41.238Z,584.6923
2023-05-04T04:31:44.228Z,583.5385
2023-05-04T04:32:47.221Z,584.7692
2023-05-04T04:33:50.086Z,588.2308
2023-05-04T04:34:53.059Z,591.0769
2023-05-04T04:35:55.985Z,589.6923
2023-05-04T04:36:58.963Z,581.6923
2023-05-04T04:38:03.774Z,578.9231
2023-05-04T04:39:04.821Z,576.0000
2023-05-04T04:40:07.892Z,574.3846
2023-05-04T04:41:10.740Z,571.6923
2023-05-04T04:42:13.660Z,569.7692
2023-05-04T04:43:16.651Z,568.8461
2023-05-04T04:44:19.605Z,575.2308
2023-05-04T04:45:22.538Z,613.1539
2023-05-04T04:46:25.586Z,615.4615
2023-05-04T04:47:28.533Z,606.5385
2023-05-04T04:48:31.403Z,594.7692
2023-05-04T04:49:34.338Z,596.5385
2023-05-04T04:50:37.264Z,596.8461
2023-05-04T04:51:40.228Z,600.6923
2023-05-04T04:52:43.164Z,601.7692
2023-05-04T04:53:46.119Z,597.3846
2023-05-04T04:54:49.051Z,592.0000
2023-05-04T04:55:52.032Z,589.1539
2023-05-04T04:56:54.950Z,585.6154
2023-05-04T04:57:57.925Z,585.4615
2023-05-04T04:59:00.841Z,586.1539
2023-05-04T05:00:04.002Z,586.3846
2023-05-04T05:01:06.771Z,587.1539
2023-05-04T05:02:09.735Z,591.7692
2023-05-04T05:03:12.751Z,598.0000
2023-05-04T05:04:15.682Z,600.0000
2023-05-04T05:05:18.557Z,595.5385
2023-05-04T05:06:21.495Z,589.0769
2023-05-04T05:07:24.444Z,580.0000
2023-05-04T05:08:27.411Z,571.7692
2023-05-04T05:09:30.360Z,570.4615
2023-05-04T05:10:33.288Z,568.7692
2023-05-04T05:11:36.216Z,569.3077
2023-05-04T05:12:39.226Z,570.0000
2023-05-04T05:13:42.125Z,567.1539
2023-05-04T05:14:45.082Z,562.9231
2023-05-04T05:15:48.014Z,562.6923
2023-05-04T05:16:51.007Z,562.4615
2023-05-04T05:17:53.949Z,558.2308
2023-05-04T05:18:56.868Z,552.6154
2023-05-04T05:19:59.814Z,551.6154
2023-05-04T05:21:02.755Z,549.2308
2023-05-04T05:22:05.710Z,548.2308
2023-05-04T05:23:08.650Z,547.4615
2023-05-04T05:24:11.633Z,547.5385
2023-05-04T05:25:14.555Z,544.7692
2023-05-04T05:26:17.512Z,539.5385
2023-05-04T05:27:20.512Z,527.7692
2023-05-04T05:28:23.396Z,522.9231
2023-05-04T05:29:26.367Z,519.5385
2023-05-04T05:30:29.320Z,520.6923
2023-05-04T05:31:32.290Z,522.3846
2023-05-04T05:32:35.243Z,524.0000
2023-05-04T05:33:38.141Z,525.3846
2023-05-04T05:34:41.092Z,526.6154
2023-05-04T05:35:44.056Z,530.0769
2023-05-04T05:36:46.986Z,533.9231
2023-05-04T05:37:49.939Z,534.3077
2023-05-04T05:38:52.914Z,532.8461
2023-05-04T05:39:55.838Z,531.6154
2023-05-04T05:40:58.789Z,531.2308
2023-05-04T05:42:01.736Z,532.0000
2023-05-04T05:43:04.673Z,532.2308
2023-05-04T05:44:07.686Z,532.6923
2023-05-04T05:45:10.616Z,533.7692
2023-05-04T05:46:13.574Z,536.3846
2023-05-04T05:47:16.536Z,537.3077
2023-05-04T05:48:19.461Z,540.6923
2023-05-04T05:49:22.369Z,542.5385
2023-05-04T05:50:25.319Z,544.7692
2023-05-04T05:51:28.271Z,543.8461
2023-05-04T05:52:31.256Z,544.5385
2023-05-04T05:53:34.179Z,543.1539
2023-05-04T05:54:37.172Z,540.7692
2023-05-04T05:55:40.064Z,541.3846
2023-05-04T05:56:43.036Z,541.3846
2023-05-04T05:57:45.989Z,541.0769
2023-05-04T05:58:48.915Z,540.6154
2023-05-04T05:59:51.866Z,539.1539
2023-05-04T06:00:54.890Z,536.1539
2023-05-04T06:01:57.778Z,534.5385
2023-05-04T06:03:00.970Z,533.0000
2023-05-04T06:04:03.886Z,530.9231
2023-05-04T06:05:06.768Z,525.3077
2023-05-04T06:06:09.579Z,517.7692
2023-05-04T06:07:12.552Z,511.6154
2023-05-04T06:08:15.461Z,507.5385
2023-05-04T06:09:18.426Z,504.6923
2023-05-04T06:10:21.415Z,503.3846
2023-05-04T06:11:24.349Z,502.0000
2023-05-04T06:12:27.326Z,501.7692
2023-05-04T06:13:30.221Z,500.8462
2023-05-04T06:14:33.147Z,499.8462
2023-05-04T06:15:36.096Z,499.0000
2023-05-04T06:16:39.063Z,497.5385
2023-05-04T06:17:42.068Z,496.6154
2023-05-04T06:18:44.957Z,498.6923
2023-05-04T06:20:01.947Z,499.6154
2023-05-04T06:20:50.861Z,499.0769
2023-05-04T06:21:53.774Z,499.2308
2023-05-04T06:22:56.730Z,499.6154
2023-05-04T06:23:59.667Z,498.4615
2023-05-04T06:25:05.309Z,500.2308
2023-05-04T06:26:05.952Z,500.1538
2023-05-04T06:27:08.485Z,499.4615
2023-05-04T06:28:11.456Z,497.8462
2023-05-04T06:29:14.405Z,497.3846
2023-05-04T06:30:17.375Z,497.2308
2023-05-04T06:31:20.294Z,494.6923
2023-05-04T06:32:23.238Z,493.2308
2023-05-04T06:33:26.171Z,494.0000
2023-05-04T06:34:29.110Z,493.5385
2023-05-04T06:35:32.072Z,495.0000
2023-05-04T06:36:35.012Z,492.5385
2023-05-04T06:37:37.984Z,491.5385
2023-05-04T06:38:40.972Z,491.0769
2023-05-04T06:39:43.852Z,490.0769
2023-05-04T06:40:46.790Z,492.2308
2023-05-04T06:41:49.731Z,490.0769
2023-05-04T06:42:52.680Z,488.2308
2023-05-04T06:43:58.202Z,486.7692
2023-05-04T06:44:58.568Z,486.0769
2023-05-04T06:46:01.714Z,483.2308
2023-05-04T06:47:04.472Z,483.6923
2023-05-04T06:48:07.465Z,480.3846
2023-05-04T06:49:10.358Z,478.3077
2023-05-04T06:50:13.309Z,477.2308
2023-05-04T06:51:16.314Z,474.8462
2023-05-04T06:52:19.202Z,473.0769
2023-05-04T06:53:22.216Z,470.3846
2023-05-04T06:54:25.135Z,470.8462
2023-05-04T06:55:28.012Z,472.3077
2023-05-04T06:56:30.964Z,475.3077
2023-05-04T06:57:33.973Z,475.2308
2023-05-04T06:58:36.852Z,476.0000
2023-05-04T06:59:39.783Z,476.0000
2023-05-04T07:00:42.733Z,472.7692
2023-05-04T07:01:45.724Z,468.4615
2023-05-04T07:02:48.815Z,466.5385
2023-05-04T07:03:51.607Z,468.5385
2023-05-04T07:04:54.554Z,471.9231
2023-05-04T07:05:57.488Z,473.7692
2023-05-04T07:07:00.438Z,474.0769
2023-05-04T07:08:03.461Z,475.5385
2023-05-04T07:09:06.384Z,476.3846
2023-05-04T07:10:09.354Z,478.6923
2023-05-04T07:11:12.280Z,479.2308
2023-05-04T07:12:15.217Z,479.7692
2023-05-04T07:13:18.245Z,479.5385
2023-05-04T07:14:21.149Z,478.4615
2023-05-04T07:15:24.088Z,477.0000
2023-05-04T07:16:27.161Z,475.3846
2023-05-04T07:17:29.982Z,473.0000
2023-05-04T07:18:32.902Z,472.7692
2023-05-04T07:19:35.909Z,471.7692
2023-05-04T07:20:38.822Z,469.0769
2023-05-04T07:21:41.812Z,468.1538
2023-05-04T07:22:44.676Z,467.1538
2023-05-04T07:23:47.623Z,467.3077
2023-05-04T07:24:50.589Z,468.6923
2023-05-04T07:25:53.835Z,467.9231
2023-05-04T07:26:56.517Z,466.6923
2023-05-04T07:27:59.476Z,463.7692
2023-05-04T07:29:02.384Z,462.1538
2023-05-04T07:30:05.456Z,462.2308
2023-05-04T07:31:08.268Z,464.3846
2023-05-04T07:32:11.267Z,465.4615
2023-05-04T07:33:14.180Z,464.9231
2023-05-04T07:34:17.093Z,465.6923
2023-05-04T07:35:20.033Z,465.1538
2023-05-04T07:36:22.960Z,464.3077
2023-05-04T07:37:25.931Z,462.6923
2023-05-04T07:38:28.847Z,462.0000
2023-05-04T07:39:31.943Z,460.4615
2023-05-04T07:40:34.748Z,460.6154
2023-05-04T07:41:37.702Z,459.7692
2023-05-04T07:42:40.630Z,461.0769
2023-05-04T07:43:43.575Z,460.9231
2023-05-04T07:44:46.519Z,459.8462
2023-05-04T07:45:49.539Z,459.4615
2023-05-04T07:46:52.414Z,460.2308
2023-05-04T07:47:55.393Z,458.6154
2023-05-04T07:48:58.303Z,456.6923
2023-05-04T07:50:01.252Z,456.4615
2023-05-04T07:51:04.195Z,454.8462
2023-05-04T07:52:07.246Z,453.6923
2023-05-04T07:53:10.093Z,456.6154
2023-05-04T07:54:13.052Z,457.1538
2023-05-04T07:55:15.993Z,453.4615
2023-05-04T07:56:18.931Z,452.6923
2023-05-04T07:57:21.907Z,454.3077
2023-05-04T07:58:24.816Z,455.1538
2023-05-04T07:59:27.784Z,455.4615
2023-05-04T08:00:30.711Z,456.3846
2023-05-04T08:01:33.697Z,455.1538
2023-05-04T08:02:36.646Z,455.5385
2023-05-04T08:03:39.553Z,452.4615
2023-05-04T08:04:42.515Z,451.2308
2023-05-04T08:05:45.624Z,450.6923
2023-05-04T08:06:48.389Z,449.6923
2023-05-04T08:07:51.346Z,449.0769
2023-05-04T08:08:54.289Z,451.1538
2023-05-04T08:09:57.248Z,453.7692
2023-05-04T08:11:15.999Z,453.2308
2023-05-04T08:12:03.129Z,453.9231
2023-05-04T08:13:06.170Z,454.0000
2023-05-04T08:14:09.037Z,453.7692
2023-05-04T08:15:11.961Z,454.0769
2023-05-04T08:16:14.941Z,450.6154
2023-05-04T08:17:17.850Z,450.0769
2023-05-04T08:18:20.803Z,451.0000
2023-05-04T08:19:23.798Z,451.0000
2023-05-04T08:20:26.695Z,451.0000
2023-05-04T08:21:29.661Z,452.3846
2023-05-04T08:22:32.599Z,452.3077
2023-05-04T08:23:35.537Z,453.1538
2023-05-04T08:24:38.501Z,451.6923
2023-05-04T08:25:41.431Z,451.3077
2023-05-04T08:26:47.412Z,452.1538
2023-05-04T08:27:47.329Z,452.3846
2023-05-04T08:28:50.293Z,450.8462
2023-05-04T08:29:53.226Z,450.9231
2023-05-04T08:30:56.174Z,451.4615
2023-05-04T08:31:59.224Z,451.3077
2023-05-04T08:33:02.103Z,451.3846
2023-05-04T08:34:05.019Z,447.8462
2023-05-04T08:35:08.099Z,447.0000
2023-05-04T08:36:10.915Z,445.8462
2023-05-04T08:37:13.878Z,445.9231
2023-05-04T08:38:16.809Z,447.7692
2023-05-04T08:39:19.785Z,448.6154
2023-05-04T08:40:22.808Z,447.3846
2023-05-04T08:41:25.664Z,447.6923
2023-05-04T08:42:28.639Z,445.6154
2023-05-04T08:43:31.581Z,445.3077
2023-05-04T08:44:34.561Z,446.1538
2023-05-04T08:45:37.465Z,444.3846
2023-05-04T08:46:40.400Z,441.3846
2023-05-04T08:47:43.357Z,443.3077
2023-05-04T08:48:46.292Z,446.3077
2023-05-04T08:49:49.229Z,447.1538
2023-05-04T08:50:52.239Z,446.2308
2023-05-04T08:51:55.126Z,443.2308
2023-05-04T08:52:58.112Z,441.0769
2023-05-04T08:54:01.040Z,443.0000
2023-05-04T08:55:04.294Z,445.1538
2023-05-04T08:56:06.941Z,445.3846
2023-05-04T08:57:09.892Z,445.0000
2023-05-04T08:58:12.911Z,444.3846
2023-05-04T08:59:15.789Z,441.3077
2023-05-04T09:00:18.745Z,440.6923
2023-05-04T09:01:21.719Z,443.6154
2023-05-04T09:02:24.733Z,443.6923
2023-05-04T09:03:27.723Z,442.4615
2023-05-04T09:04:30.561Z,441.3077
2023-05-04T09:05:33.491Z,441.6923
2023-05-04T09:06:36.455Z,438.9231
2023-05-04T09:07:39.424Z,440.6154
2023-05-04T09:08:42.373Z,439.6923
2023-05-04T09:09:45.311Z,439.5385
2023-05-04T09:10:48.244Z,439.3846
2023-05-04T09:11:51.198Z,438.1538
2023-05-04T09:12:54.164Z,438.1538
2023-05-04T09:13:57.146Z,438.6154
2023-05-04T09:15:00.081Z,438.1538
2023-05-04T09:16:02.997Z,436.6923
2023-05-04T09:17:06.076Z,437.4615
2023-05-04T09:18:08.912Z,437.8462
2023-05-04T09:19:11.870Z,439.7692
2023-05-04T09:20:14.829Z,439.7692
2023-05-04T09:21:17.771Z,443.6154
2023-05-04T09:22:20.751Z,442.0769
2023-05-04T09:23:23.701Z,441.7692
2023-05-04T09:24:26.653Z,441.2308
2023-05-04T09:25:29.598Z,440.8462
2023-05-04T09:26:32.540Z,438.8462
2023-05-04T09:27:35.503Z,436.7692
2023-05-04T09:28:38.515Z,438.4615
2023-05-04T09:29:41.448Z,439.1538
2023-05-04T09:30:44.407Z,439.3846
2023-05-04T09:31:47.333Z,436.8462
2023-05-04T09:32:50.317Z,437.6154
2023-05-04T09:33:53.738Z,436.0000
2023-05-04T09:34:56.218Z,432.7692
2023-05-04T09:35:59.142Z,435.7692
2023-05-04T09:37:02.205Z,433.7692
2023-05-04T09:38:05.076Z,435.6154
2023-05-04T09:39:09.533Z,436.7692
2023-05-04T09:40:10.956Z,436.5385
2023-05-04T09:41:13.992Z,435.9231
2023-05-04T09:42:16.875Z,435.6154
2023-05-04T09:43:19.821Z,434.3077
2023-05-04T09:44:22.779Z,431.3846
2023-05-04T09:45:25.756Z,429.8462
2023-05-04T09:46:28.770Z,428.9231
2023-05-04T09:47:31.658Z,429.6154
2023-05-04T09:48:34.605Z,430.4615
2023-05-04T09:49:37.568Z,433.0000
2023-05-04T09:50:40.533Z,436.3077
2023-05-04T09:51:43.466Z,436.6154
2023-05-04T09:52:46.513Z,433.6923
2023-05-04T09:53:49.367Z,431.2308
2023-05-04T09:54:52.329Z,429.3077
2023-05-04T09:55:55.282Z,429.9231
2023-05-04T09:56:58.246Z,429.6154
2023-05-04T09:58:01.201Z,429.3077
2023-05-04T09:59:04.166Z,431.0000
2023-05-04T10:00:07.135Z,429.4615
2023-05-04T10:01:10.078Z,427.9231
2023-05-04T10:02:22.543Z,426.4615
2023-05-04T10:03:16.045Z,426.1538
2023-05-04T10:04:18.911Z,424.6154
2023-05-04T10:05:22.042Z,423.6154
2023-05-04T10:06:24.839Z,422.1538
2023-05-04T10:07:27.856Z,422.3077
2023-05-04T10:08:30.732Z,425.8462
2023-05-04T10:09:33.707Z,425.0769
2023-05-04T10:10:36.660Z,423.3846
2023-05-04T10:11:39.626Z,422.8462
2023-05-04T10:12:42.643Z,418.5385
2023-05-04T10:13:45.530Z,416.8462
2023-05-04T10:14:48.496Z,417.9231
2023-05-04T10:15:51.553Z,418.3846
2023-05-04T10:16:54.445Z,414.6923
2023-05-04T10:17:57.413Z,414.7692
2023-05-04T10:19:00.337Z,415.6923
2023-05-04T10:20:03.291Z,417.3077
2023-05-04T10:21:06.234Z,415.7692
2023-05-04T10:22:09.230Z,417.1538
2023-05-04T10:23:12.225Z,421.6154
2023-05-04T10:24:15.147Z,422.0000
2023-05-04T10:25:18.257Z,418.6923
2023-05-04T10:26:21.047Z,416.0769
2023-05-04T10:27:24.105Z,414.0000
2023-05-04T10:28:27.037Z,414.6154
2023-05-04T10:29:29.930Z,425.0769
2023-05-04T10:30:32.898Z,426.3846
2023-05-04T10:31:35.900Z,421.1538
2023-05-04T10:32:38.859Z,419.4615
2023-05-04T10:33:41.771Z,418.6154
2023-05-04T10:34:44.719Z,418.2308
2023-05-04T10:35:47.647Z,415.1538
2023-05-04T10:36:50.632Z,414.8462
2023-05-04T10:37:53.610Z,414.6154
2023-05-04T10:38:56.534Z,413.9231
2023-05-04T10:39:59.475Z,406.9231
2023-05-04T10:41:02.434Z,409.3846
2023-05-04T10:42:05.419Z,410.0000
2023-05-04T10:43:08.375Z,409.0769
2023-05-04T10:44:11.297Z,410.4615
2023-05-04T10:45:14.258Z,410.0000
2023-05-04T10:46:17.234Z,410.2308
2023-05-04T10:47:20.192Z,411.3077
2023-05-04T10:48:23.133Z,426.1538
2023-05-04T10:49:26.088Z,412.1538
2023-05-04T10:50:29.017Z,414.5385
2023-05-04T10:51:42.454Z,417.1538
2023-05-04T10:52:34.943Z,417.8462
2023-05-04T10:53:38.996Z,419.2308
2023-05-04T10:54:40.892Z,414.4615
2023-05-04T10:55:43.813Z,412.2308
2023-05-04T10:56:46.760Z,411.4615
2023-05-04T10:57:49.706Z,416.8462
2023-05-04T10:58:52.753Z,415.6154
2023-05-04T10:59:55.775Z,416.5385
2023-05-04T11:00:58.610Z,417.9231
2023-05-04T11:02:01.529Z,415.3846
2023-05-04T11:03:04.571Z,413.0769
2023-05-04T11:04:07.437Z,415.8462
2023-05-04T11:05:10.419Z,416.0000
2023-05-04T11:06:13.370Z,417.9231
2023-05-04T11:07:16.853Z,419.5385
2023-05-04T11:08:19.541Z,419.4615
2023-05-04T11:09:22.207Z,416.4615
2023-05-04T11:10:25.178Z,416.3077
2023-05-04T11:11:28.137Z,415.7692
2023-05-04T11:12:31.166Z,418.3077
2023-05-04T11:13:34.044Z,417.4615
2023-05-04T11:14:37.061Z,415.0769
2023-05-04T11:15:40.158Z,414.3077
2023-05-04T11:16:43.042Z,415.4615
2023-05-04T11:17:46.000Z,410.5385
2023-05-04T11:18:48.884Z,406.8462
2023-05-04T11:19:51.865Z,411.5385
2023-05-04T11:20:54.838Z,431.0769
2023-05-04T11:21:57.740Z,418.0000
2023-05-04T11:23:00.709Z,415.3077
2023-05-04T11:24:03.648Z,421.4615
2023-05-04T11:25:06.811Z,424.6923
2023-05-04T11:26:09.608Z,420.1538
2023-05-04T11:27:12.533Z,419.3077
2023-05-04T11:28:15.471Z,419.3077
2023-05-04T11:29:18.432Z,419.9231
2023-05-04T11:30:21.364Z,415.0000
2023-05-04T11:31:24.411Z,414.4615
2023-05-04T11:32:27.436Z,413.6923
2023-05-04T11:33:30.308Z,412.2308
2023-05-04T11:34:33.352Z,413.6923
2023-05-04T11:35:36.217Z,414.0769
2023-05-04T11:36:39.122Z,414.3846
2023-05-04T11:37:42.173Z,418.0000
2023-05-04T11:38:45.081Z,414.0769
2023-05-04T11:39:48.007Z,410.6154
2023-05-04T11:40:51.030Z,409.0769
2023-05-04T11:41:54.075Z,405.4615
2023-05-04T11:42:57.325Z,410.5385
2023-05-04T11:43:59.832Z,410.4615
2023-05-04T11:45:02.914Z,413.6923
2023-05-04T11:46:05.857Z,412.3846
2023-05-04T11:47:08.715Z,409.7692
2023-05-04T11:48:11.677Z,408.7692
2023-05-04T11:49:14.637Z,410.3077
2023-05-04T11:50:17.603Z,411.6154
2023-05-04T11:51:20.558Z,412.7692
2023-05-04T11:52:23.526Z,414.6154
2023-05-04T11:53:26.488Z,415.3846
2023-05-04T11:54:29.458Z,414.3077
2023-05-04T11:55:32.424Z,415.6923
2023-05-04T11:56:35.406Z,416.1538
2023-05-04T11:57:38.347Z,415.4615
2023-05-04T11:58:41.293Z,417.2308
2023-05-04T11:59:44.248Z,416.0769
2023-05-04T12:00:47.257Z,415.2308
2023-05-04T12:01:50.192Z,416.7692
2023-05-04T12:02:53.206Z,417.7692
2023-05-04T12:03:56.269Z,419.4615
2023-05-04T12:04:59.104Z,417.6923
2023-05-04T12:06:02.139Z,414.3077
2023-05-04T12:07:05.009Z,420.9231
2023-05-04T12:08:08.054Z,480.4615
2023-05-04T12:09:10.968Z,544.9231
2023-05-04T12:10:13.940Z,616.7692
2023-05-04T12:11:16.939Z,467.4615
2023-05-04T12:12:19.846Z,472.2308
2023-05-04T12:13:22.806Z,489.2308
2023-05-04T12:14:25.874Z,447.5385
2023-05-04T12:15:28.801Z,440.8462
2023-05-04T12:16:31.805Z,449.5385
2023-05-04T12:17:34.759Z,523.8461
2023-05-04T12:18:37.634Z,488.5385